Portada
METAR-TAF:

METAR-TAF

Aeroports :

Urmia, Iran

latitud: 37-32N, longitud: 045-05E, altitud: 1297 m

Observació

L'informe es va fer fa 1 hora i 2 minuts, a les 08:00 UTC
Vent 6 kt del Est/Sud-Est
Temperatura 33°C
Humitat 26%
Pressió 1009 hPa
Visibilitat 10 km o més
Escasses núvols a una alçada de 4000 ft

METAR: OITR 230800Z 11006KT 9999 FEW040 33/11 Q1009

Hora: 13:32 (09:02 UTC)

Pronòstic

L'informe es va fer fa 3 hores i 32 minuts, a les 05:30 UTC
Pronòstic vàlid del 23 a les 06 UTC al 24 a les 12 UTC
Vent 6 kt del Est/Sud-Est
Visibilitat 10 km o més
Escasses núvols a una alçada de 4000 ft
Temporalment
l' 23 a les 12 UTC al 23 a les 18 UTC
Vent 12 kt del Est
Escasses núvols a una alçada de 3500 ft, Cumulonimbus.
Núvols disperses a una alçada de 4000 ft

TAF: OITR 230530Z 2306/2412 12006KT 9999 FEW040 TEMPO 2312/2318 09012KT FEW035CB SCT040

Observacions i pronòstics meteorològics de més de 4000 aeroports (METAR i TAF).

Les estacions disponibles són els punts grocs i vermells al mapa.

Posi el ratolí al punt desitjat per veure el nom de l'estació.

Feu clic per veure les observacions i els pronòstics meteorològics.

Per canviar el mapa: feu clic els botons verds amb una creu de color negre per apropar; al botó verd amb un guió per allunyar la imatge; o en les fletxes verdes per a mapes adjacents.


METAR-TAF: